| State | Missouri | Latest | Poor (690 cfs) | |
| River | Eleven Point River | Rating | Observed | Estimated |
| Updated | 2026-05-10 8:45 (30 minutes ago) | Flood - The river is flooding. Obstacles can be treacherous or deadly. The river should be avoided at this stage for casual trips and definitely for the inexperienced. Trips should be attempted only with protective gear and equipment.Flood | (none) | 3347 |
| Discharge | 690 cfs (median: 1660 cfs) | High - The river is high and potentially dangerous, especially for the young and / or inexperienced. Normal stream obstacles are sometimes difficult to navigate. Extended distances can be attempted, but canoe travel may not be advisable.High | (none) | 1472 |
| Height | 3.03 feet | Good - Conditions are ideal for a canoe or kayak. Boats typically will drag on fewer than one-quarter of riffles, if at all, and portages are unnecessary or rare. Normal float lengths can be attempted without a problem.Good | (none) | 1059 |
| Trend | Steady (falling over 24 hours) | Low - River is low but can still be floated. Some riffles are okay but most come with significant dragging and might need a portage. Float lengths should be reduced to accommodate low flow, dragging, and portages.Low | (none) | 802 |
| USGS | USGS Site ( Duck Duck Go Maps) | Poor - River is too low to float comfortably. Most or all riffles will drag or must be portaged and some obstacles (such as slick shelf rock) cause undue problems. Avoid the river at this stage for casual paddling trips.Poor | (none) | 423 |
| Date | Start | End | Distance | Condition | Discharge | Height | Fishing | Details |
|---|
A total of 0 rows are displayed.
BLG - Bluegill
CCF - Channel Catfish
CP - Chain Pickerel
FWD - Freshwater Drum
GSF - Green Sunfish
KSB - Kentucky Spotted Bass
LMB - Largemouth Bass
LSF - Longear Sunfish
RB - Rock Bass / Goggle Eye
RSF - Redear Sunfish
RT - Rainbow Trout
SMB - Smallmouth Bass
WB - White Bass
WF - Whitefish
WL - WalleyeThe classic River Trips application is still available for use. It is updated with the new system using a data retrofit. It is no longer maintained. The original River Trips application is no longer updated (as of 1 Dec 2016) but can be checked for errors or for the condition of the data before it was converted to the new system.
| Observation | Height | Discharge | Maximum Discharge | Minimum Discharge | Mean Discharge | P05 | P10 | P20 | P25 | P50 (Median) | P75 | P80 | P90 | P95 |
|---|---|---|---|---|---|---|---|---|---|---|---|---|---|---|
| 2026-05-10 08:45 | 3.03 | 690 | 11400 (2002) | 387 (1981) | 2000 | 518 | 697 | 983 | 1060 | 1660 | 2200 | 2530 | 3510 | 4670 |
| 2026-05-10 07:45 | 3.03 | 690 | 11400 (2002) | 387 (1981) | 2000 | 518 | 697 | 983 | 1060 | 1660 | 2200 | 2530 | 3510 | 4670 |
| 2026-05-10 06:45 | 3.03 | 690 | 11400 (2002) | 387 (1981) | 2000 | 518 | 697 | 983 | 1060 | 1660 | 2200 | 2530 | 3510 | 4670 |
| 2026-05-10 05:45 | 3.03 | 690 | 11400 (2002) | 387 (1981) | 2000 | 518 | 697 | 983 | 1060 | 1660 | 2200 | 2530 | 3510 | 4670 |
| 2026-05-10 04:45 | 3.03 | 690 | 11400 (2002) | 387 (1981) | 2000 | 518 | 697 | 983 | 1060 | 1660 | 2200 | 2530 | 3510 | 4670 |
| 2026-05-10 03:45 | 3.04 | 697 | 11400 (2002) | 387 (1981) | 2000 | 518 | 697 | 983 | 1060 | 1660 | 2200 | 2530 | 3510 | 4670 |
| 2026-05-10 02:45 | 3.04 | 697 | 11400 (2002) | 387 (1981) | 2000 | 518 | 697 | 983 | 1060 | 1660 | 2200 | 2530 | 3510 | 4670 |
| 2026-05-10 01:45 | 3.04 | 697 | 11400 (2002) | 387 (1981) | 2000 | 518 | 697 | 983 | 1060 | 1660 | 2200 | 2530 | 3510 | 4670 |
| 2026-05-10 00:45 | 3.04 | 697 | 11400 (2002) | 387 (1981) | 2000 | 518 | 697 | 983 | 1060 | 1660 | 2200 | 2530 | 3510 | 4670 |
| 2026-05-09 23:45 | 3.04 | 697 | 11400 (2002) | 387 (1981) | 2000 | 518 | 697 | 983 | 1060 | 1660 | 2200 | 2530 | 3510 | 4670 |
| 2026-05-09 22:45 | 3.04 | 697 | 16700 (2002) | 380 (1981) | 2130 | 526 | 717 | 976 | 1030 | 1510 | 2140 | 2400 | 3760 | 6840 |
| 2026-05-09 21:45 | 3.04 | 697 | 16700 (2002) | 380 (1981) | 2130 | 526 | 717 | 976 | 1030 | 1510 | 2140 | 2400 | 3760 | 6840 |
| 2026-05-09 20:45 | 3.05 | 705 | 16700 (2002) | 380 (1981) | 2130 | 526 | 717 | 976 | 1030 | 1510 | 2140 | 2400 | 3760 | 6840 |
| 2026-05-09 19:45 | 3.05 | 705 | 16700 (2002) | 380 (1981) | 2130 | 526 | 717 | 976 | 1030 | 1510 | 2140 | 2400 | 3760 | 6840 |
| 2026-05-09 18:45 | 3.05 | 705 | 16700 (2002) | 380 (1981) | 2130 | 526 | 717 | 976 | 1030 | 1510 | 2140 | 2400 | 3760 | 6840 |
| 2026-05-09 17:45 | 3.06 | 712 | 16700 (2002) | 380 (1981) | 2130 | 526 | 717 | 976 | 1030 | 1510 | 2140 | 2400 | 3760 | 6840 |
| 2026-05-09 16:45 | 3.06 | 712 | 16700 (2002) | 380 (1981) | 2130 | 526 | 717 | 976 | 1030 | 1510 | 2140 | 2400 | 3760 | 6840 |
| 2026-05-09 15:45 | 3.05 | 705 | 16700 (2002) | 380 (1981) | 2130 | 526 | 717 | 976 | 1030 | 1510 | 2140 | 2400 | 3760 | 6840 |
| 2026-05-09 14:45 | 3.05 | 705 | 16700 (2002) | 380 (1981) | 2130 | 526 | 717 | 976 | 1030 | 1510 | 2140 | 2400 | 3760 | 6840 |
| 2026-05-09 13:45 | 3.07 | 720 | 16700 (2002) | 380 (1981) | 2130 | 526 | 717 | 976 | 1030 | 1510 | 2140 | 2400 | 3760 | 6840 |
| 2026-05-09 12:45 | 3.07 | 720 | 16700 (2002) | 380 (1981) | 2130 | 526 | 717 | 976 | 1030 | 1510 | 2140 | 2400 | 3760 | 6840 |
| 2026-05-09 11:45 | 3.07 | 720 | 16700 (2002) | 380 (1981) | 2130 | 526 | 717 | 976 | 1030 | 1510 | 2140 | 2400 | 3760 | 6840 |
| 2026-05-09 10:45 | 3.06 | 712 | 16700 (2002) | 380 (1981) | 2130 | 526 | 717 | 976 | 1030 | 1510 | 2140 | 2400 | 3760 | 6840 |
| 2026-05-09 09:45 | 3.06 | 712 | 16700 (2002) | 380 (1981) | 2130 | 526 | 717 | 976 | 1030 | 1510 | 2140 | 2400 | 3760 | 6840 |
| 2026-05-09 08:45 | 3.06 | 712 | 16700 (2002) | 380 (1981) | 2130 | 526 | 717 | 976 | 1030 | 1510 | 2140 | 2400 | 3760 | 6840 |
| 2026-05-09 07:45 | 3.06 | 712 | 16700 (2002) | 380 (1981) | 2130 | 526 | 717 | 976 | 1030 | 1510 | 2140 | 2400 | 3760 | 6840 |
| 2026-05-09 06:45 | 3.06 | 712 | 16700 (2002) | 380 (1981) | 2130 | 526 | 717 | 976 | 1030 | 1510 | 2140 | 2400 | 3760 | 6840 |
| 2026-05-09 05:45 | 3.06 | 712 | 16700 (2002) | 380 (1981) | 2130 | 526 | 717 | 976 | 1030 | 1510 | 2140 | 2400 | 3760 | 6840 |
| 2026-05-09 04:45 | 3.06 | 712 | 16700 (2002) | 380 (1981) | 2130 | 526 | 717 | 976 | 1030 | 1510 | 2140 | 2400 | 3760 | 6840 |
| 2026-05-09 03:45 | 3.06 | 712 | 16700 (2002) | 380 (1981) | 2130 | 526 | 717 | 976 | 1030 | 1510 | 2140 | 2400 | 3760 | 6840 |
| 2026-05-09 02:45 | 3.06 | 712 | 16700 (2002) | 380 (1981) | 2130 | 526 | 717 | 976 | 1030 | 1510 | 2140 | 2400 | 3760 | 6840 |
| 2026-05-09 01:45 | 3.06 | 712 | 16700 (2002) | 380 (1981) | 2130 | 526 | 717 | 976 | 1030 | 1510 | 2140 | 2400 | 3760 | 6840 |
| 2026-05-09 00:45 | 3.06 | 712 | 16700 (2002) | 380 (1981) | 2130 | 526 | 717 | 976 | 1030 | 1510 | 2140 | 2400 | 3760 | 6840 |
| 2026-05-08 23:45 | 3.07 | 720 | 16700 (2002) | 380 (1981) | 2130 | 526 | 717 | 976 | 1030 | 1510 | 2140 | 2400 | 3760 | 6840 |
| 2026-05-08 22:45 | 3.07 | 720 | 24600 (1961) | 380 (1981) | 2110 | 549 | 732 | 952 | 1040 | 1580 | 2220 | 2440 | 3720 | 4840 |
| 2026-05-08 21:45 | 3.07 | 720 | 24600 (1961) | 380 (1981) | 2110 | 549 | 732 | 952 | 1040 | 1580 | 2220 | 2440 | 3720 | 4840 |
| 2026-05-08 20:45 | 3.07 | 720 | 24600 (1961) | 380 (1981) | 2110 | 549 | 732 | 952 | 1040 | 1580 | 2220 | 2440 | 3720 | 4840 |
| 2026-05-08 19:45 | 3.07 | 720 | 24600 (1961) | 380 (1981) | 2110 | 549 | 732 | 952 | 1040 | 1580 | 2220 | 2440 | 3720 | 4840 |
| 2026-05-08 18:45 | 3.08 | 727 | 24600 (1961) | 380 (1981) | 2110 | 549 | 732 | 952 | 1040 | 1580 | 2220 | 2440 | 3720 | 4840 |
| 2026-05-08 17:45 | 3.07 | 720 | 24600 (1961) | 380 (1981) | 2110 | 549 | 732 | 952 | 1040 | 1580 | 2220 | 2440 | 3720 | 4840 |
| 2026-05-08 16:45 | 3.07 | 720 | 24600 (1961) | 380 (1981) | 2110 | 549 | 732 | 952 | 1040 | 1580 | 2220 | 2440 | 3720 | 4840 |
| 2026-05-08 15:45 | 3.09 | 735 | 24600 (1961) | 380 (1981) | 2110 | 549 | 732 | 952 | 1040 | 1580 | 2220 | 2440 | 3720 | 4840 |
| 2026-05-08 14:45 | 3.08 | 727 | 24600 (1961) | 380 (1981) | 2110 | 549 | 732 | 952 | 1040 | 1580 | 2220 | 2440 | 3720 | 4840 |
| 2026-05-08 13:45 | 3.07 | 720 | 24600 (1961) | 380 (1981) | 2110 | 549 | 732 | 952 | 1040 | 1580 | 2220 | 2440 | 3720 | 4840 |
| 2026-05-08 12:45 | 3.06 | 712 | 24600 (1961) | 380 (1981) | 2110 | 549 | 732 | 952 | 1040 | 1580 | 2220 | 2440 | 3720 | 4840 |
| 2026-05-08 11:45 | 3.06 | 712 | 24600 (1961) | 380 (1981) | 2110 | 549 | 732 | 952 | 1040 | 1580 | 2220 | 2440 | 3720 | 4840 |
| 2026-05-08 10:45 | 3.07 | 720 | 24600 (1961) | 380 (1981) | 2110 | 549 | 732 | 952 | 1040 | 1580 | 2220 | 2440 | 3720 | 4840 |
| 2026-05-08 09:45 | 3.08 | 727 | 24600 (1961) | 380 (1981) | 2110 | 549 | 732 | 952 | 1040 | 1580 | 2220 | 2440 | 3720 | 4840 |
| 2026-05-08 08:45 | 3.08 | 727 | 24600 (1961) | 380 (1981) | 2110 | 549 | 732 | 952 | 1040 | 1580 | 2220 | 2440 | 3720 | 4840 |
| 2026-05-08 07:45 | 3.09 | 735 | 24600 (1961) | 380 (1981) | 2110 | 549 | 732 | 952 | 1040 | 1580 | 2220 | 2440 | 3720 | 4840 |
| 2026-05-08 06:45 | 3.09 | 735 | 24600 (1961) | 380 (1981) | 2110 | 549 | 732 | 952 | 1040 | 1580 | 2220 | 2440 | 3720 | 4840 |
| 2026-05-08 05:45 | 3.09 | 735 | 24600 (1961) | 380 (1981) | 2110 | 549 | 732 | 952 | 1040 | 1580 | 2220 | 2440 | 3720 | 4840 |
| 2026-05-08 04:45 | 3.09 | 735 | 24600 (1961) | 380 (1981) | 2110 | 549 | 732 | 952 | 1040 | 1580 | 2220 | 2440 | 3720 | 4840 |
| 2026-05-08 03:45 | 3.09 | 735 | 24600 (1961) | 380 (1981) | 2110 | 549 | 732 | 952 | 1040 | 1580 | 2220 | 2440 | 3720 | 4840 |
| 2026-05-08 02:45 | 3.10 | 742 | 24600 (1961) | 380 (1981) | 2110 | 549 | 732 | 952 | 1040 | 1580 | 2220 | 2440 | 3720 | 4840 |
| 2026-05-08 01:45 | 3.10 | 742 | 24600 (1961) | 380 (1981) | 2110 | 549 | 732 | 952 | 1040 | 1580 | 2220 | 2440 | 3720 | 4840 |
| 2026-05-08 00:45 | 3.10 | 742 | 24600 (1961) | 380 (1981) | 2110 | 549 | 732 | 952 | 1040 | 1580 | 2220 | 2440 | 3720 | 4840 |
| 2026-05-07 23:45 | 3.10 | 742 | 24600 (1961) | 380 (1981) | 2110 | 549 | 732 | 952 | 1040 | 1580 | 2220 | 2440 | 3720 | 4840 |
| 2026-05-07 22:45 | 3.10 | 742 | 11300 (1961) | 381 (1981) | 2020 | 575 | 639 | 912 | 1050 | 1690 | 2190 | 2460 | 3620 | 6100 |
| 2026-05-07 21:45 | 3.11 | 750 | 11300 (1961) | 381 (1981) | 2020 | 575 | 639 | 912 | 1050 | 1690 | 2190 | 2460 | 3620 | 6100 |
| 2026-05-07 20:45 | 3.11 | 750 | 11300 (1961) | 381 (1981) | 2020 | 575 | 639 | 912 | 1050 | 1690 | 2190 | 2460 | 3620 | 6100 |
| 2026-05-07 19:45 | 3.11 | 750 | 11300 (1961) | 381 (1981) | 2020 | 575 | 639 | 912 | 1050 | 1690 | 2190 | 2460 | 3620 | 6100 |
| 2026-05-07 18:45 | 3.11 | 750 | 11300 (1961) | 381 (1981) | 2020 | 575 | 639 | 912 | 1050 | 1690 | 2190 | 2460 | 3620 | 6100 |
| 2026-05-07 17:45 | 3.12 | 757 | 11300 (1961) | 381 (1981) | 2020 | 575 | 639 | 912 | 1050 | 1690 | 2190 | 2460 | 3620 | 6100 |
| 2026-05-07 16:45 | 3.12 | 757 | 11300 (1961) | 381 (1981) | 2020 | 575 | 639 | 912 | 1050 | 1690 | 2190 | 2460 | 3620 | 6100 |
| 2026-05-07 15:45 | 3.13 | 765 | 11300 (1961) | 381 (1981) | 2020 | 575 | 639 | 912 | 1050 | 1690 | 2190 | 2460 | 3620 | 6100 |
| 2026-05-07 14:45 | 3.14 | 773 | 11300 (1961) | 381 (1981) | 2020 | 575 | 639 | 912 | 1050 | 1690 | 2190 | 2460 | 3620 | 6100 |
| 2026-05-07 13:45 | 3.14 | 773 | 11300 (1961) | 381 (1981) | 2020 | 575 | 639 | 912 | 1050 | 1690 | 2190 | 2460 | 3620 | 6100 |
| 2026-05-07 12:45 | 3.14 | 773 | 11300 (1961) | 381 (1981) | 2020 | 575 | 639 | 912 | 1050 | 1690 | 2190 | 2460 | 3620 | 6100 |
| 2026-05-07 11:45 | 3.13 | 765 | 11300 (1961) | 381 (1981) | 2020 | 575 | 639 | 912 | 1050 | 1690 | 2190 | 2460 | 3620 | 6100 |
| 2026-05-07 10:45 | 3.13 | 765 | 11300 (1961) | 381 (1981) | 2020 | 575 | 639 | 912 | 1050 | 1690 | 2190 | 2460 | 3620 | 6100 |
| 2026-05-07 09:45 | 3.13 | 765 | 11300 (1961) | 381 (1981) | 2020 | 575 | 639 | 912 | 1050 | 1690 | 2190 | 2460 | 3620 | 6100 |
| 2026-05-07 08:45 | 3.13 | 765 | 11300 (1961) | 381 (1981) | 2020 | 575 | 639 | 912 | 1050 | 1690 | 2190 | 2460 | 3620 | 6100 |
| 2026-05-07 07:45 | 3.13 | 765 | 11300 (1961) | 381 (1981) | 2020 | 575 | 639 | 912 | 1050 | 1690 | 2190 | 2460 | 3620 | 6100 |
| 2026-05-07 06:45 | 3.13 | 765 | 11300 (1961) | 381 (1981) | 2020 | 575 | 639 | 912 | 1050 | 1690 | 2190 | 2460 | 3620 | 6100 |
| 2026-05-07 05:45 | 3.14 | 773 | 11300 (1961) | 381 (1981) | 2020 | 575 | 639 | 912 | 1050 | 1690 | 2190 | 2460 | 3620 | 6100 |
| 2026-05-07 04:45 | 3.14 | 773 | 11300 (1961) | 381 (1981) | 2020 | 575 | 639 | 912 | 1050 | 1690 | 2190 | 2460 | 3620 | 6100 |
| 2026-05-07 03:45 | 3.14 | 773 | 11300 (1961) | 381 (1981) | 2020 | 575 | 639 | 912 | 1050 | 1690 | 2190 | 2460 | 3620 | 6100 |
| 2026-05-07 02:45 | 3.14 | 773 | 11300 (1961) | 381 (1981) | 2020 | 575 | 639 | 912 | 1050 | 1690 | 2190 | 2460 | 3620 | 6100 |
| 2026-05-07 01:45 | 3.14 | 773 | 11300 (1961) | 381 (1981) | 2020 | 575 | 639 | 912 | 1050 | 1690 | 2190 | 2460 | 3620 | 6100 |
| 2026-05-07 00:45 | 3.14 | 773 | 11300 (1961) | 381 (1981) | 2020 | 575 | 639 | 912 | 1050 | 1690 | 2190 | 2460 | 3620 | 6100 |
| 2026-05-06 23:45 | 3.15 | 780 | 11300 (1961) | 381 (1981) | 2020 | 575 | 639 | 912 | 1050 | 1690 | 2190 | 2460 | 3620 | 6100 |
| 2026-05-06 22:45 | 3.15 | 780 | 12600 (1958) | 393 (1981) | 2160 | 567 | 630 | 915 | 1030 | 1600 | 2300 | 2610 | 3420 | 7330 |
| 2026-05-06 21:45 | 3.15 | 780 | 12600 (1958) | 393 (1981) | 2160 | 567 | 630 | 915 | 1030 | 1600 | 2300 | 2610 | 3420 | 7330 |
| 2026-05-06 20:45 | 3.15 | 780 | 12600 (1958) | 393 (1981) | 2160 | 567 | 630 | 915 | 1030 | 1600 | 2300 | 2610 | 3420 | 7330 |
| 2026-05-06 19:45 | 3.16 | 788 | 12600 (1958) | 393 (1981) | 2160 | 567 | 630 | 915 | 1030 | 1600 | 2300 | 2610 | 3420 | 7330 |
| 2026-05-06 18:45 | 3.16 | 788 | 12600 (1958) | 393 (1981) | 2160 | 567 | 630 | 915 | 1030 | 1600 | 2300 | 2610 | 3420 | 7330 |
| 2026-05-06 17:45 | 3.16 | 788 | 12600 (1958) | 393 (1981) | 2160 | 567 | 630 | 915 | 1030 | 1600 | 2300 | 2610 | 3420 | 7330 |
| 2026-05-06 16:45 | 3.17 | 795 | 12600 (1958) | 393 (1981) | 2160 | 567 | 630 | 915 | 1030 | 1600 | 2300 | 2610 | 3420 | 7330 |
| 2026-05-06 15:45 | 3.17 | 795 | 12600 (1958) | 393 (1981) | 2160 | 567 | 630 | 915 | 1030 | 1600 | 2300 | 2610 | 3420 | 7330 |
| 2026-05-06 14:45 | 3.17 | 795 | 12600 (1958) | 393 (1981) | 2160 | 567 | 630 | 915 | 1030 | 1600 | 2300 | 2610 | 3420 | 7330 |
| 2026-05-06 13:45 | 3.18 | 803 | 12600 (1958) | 393 (1981) | 2160 | 567 | 630 | 915 | 1030 | 1600 | 2300 | 2610 | 3420 | 7330 |
| 2026-05-06 12:45 | 3.19 | 810 | 12600 (1958) | 393 (1981) | 2160 | 567 | 630 | 915 | 1030 | 1600 | 2300 | 2610 | 3420 | 7330 |
| 2026-05-06 11:45 | 3.18 | 803 | 12600 (1958) | 393 (1981) | 2160 | 567 | 630 | 915 | 1030 | 1600 | 2300 | 2610 | 3420 | 7330 |
| 2026-05-06 10:45 | 3.18 | 803 | 12600 (1958) | 393 (1981) | 2160 | 567 | 630 | 915 | 1030 | 1600 | 2300 | 2610 | 3420 | 7330 |
| 2026-05-06 09:45 | 3.18 | 803 | 12600 (1958) | 393 (1981) | 2160 | 567 | 630 | 915 | 1030 | 1600 | 2300 | 2610 | 3420 | 7330 |
| 2026-05-06 08:45 | 3.19 | 810 | 12600 (1958) | 393 (1981) | 2160 | 567 | 630 | 915 | 1030 | 1600 | 2300 | 2610 | 3420 | 7330 |
| 2026-05-06 07:45 | 3.19 | 810 | 12600 (1958) | 393 (1981) | 2160 | 567 | 630 | 915 | 1030 | 1600 | 2300 | 2610 | 3420 | 7330 |
| 2026-05-06 06:45 | 3.19 | 810 | 12600 (1958) | 393 (1981) | 2160 | 567 | 630 | 915 | 1030 | 1600 | 2300 | 2610 | 3420 | 7330 |
| 2026-05-06 05:45 | 3.19 | 810 | 12600 (1958) | 393 (1981) | 2160 | 567 | 630 | 915 | 1030 | 1600 | 2300 | 2610 | 3420 | 7330 |
| 2026-05-06 04:45 | 3.20 | 818 | 12600 (1958) | 393 (1981) | 2160 | 567 | 630 | 915 | 1030 | 1600 | 2300 | 2610 | 3420 | 7330 |
| 2026-05-06 03:45 | 3.20 | 818 | 12600 (1958) | 393 (1981) | 2160 | 567 | 630 | 915 | 1030 | 1600 | 2300 | 2610 | 3420 | 7330 |
| 2026-05-06 02:45 | 3.21 | 826 | 12600 (1958) | 393 (1981) | 2160 | 567 | 630 | 915 | 1030 | 1600 | 2300 | 2610 | 3420 | 7330 |
| 2026-05-06 01:45 | 3.21 | 826 | 12600 (1958) | 393 (1981) | 2160 | 567 | 630 | 915 | 1030 | 1600 | 2300 | 2610 | 3420 | 7330 |
| 2026-05-06 00:45 | 3.22 | 833 | 12600 (1958) | 393 (1981) | 2160 | 567 | 630 | 915 | 1030 | 1600 | 2300 | 2610 | 3420 | 7330 |
| 2026-05-05 23:45 | 3.23 | 841 | 12600 (1958) | 393 (1981) | 2160 | 567 | 630 | 915 | 1030 | 1600 | 2300 | 2610 | 3420 | 7330 |
| 2026-05-05 22:45 | 3.23 | 841 | 13300 (1958) | 391 (1981) | 2180 | 543 | 647 | 929 | 1030 | 1590 | 2510 | 2590 | 4250 | 6420 |
| 2026-05-05 21:45 | 3.23 | 841 | 13300 (1958) | 391 (1981) | 2180 | 543 | 647 | 929 | 1030 | 1590 | 2510 | 2590 | 4250 | 6420 |
| 2026-05-05 20:45 | 3.23 | 841 | 13300 (1958) | 391 (1981) | 2180 | 543 | 647 | 929 | 1030 | 1590 | 2510 | 2590 | 4250 | 6420 |
| 2026-05-05 19:45 | 3.23 | 841 | 13300 (1958) | 391 (1981) | 2180 | 543 | 647 | 929 | 1030 | 1590 | 2510 | 2590 | 4250 | 6420 |
| 2026-05-05 18:45 | 3.20 | 818 | 13300 (1958) | 391 (1981) | 2180 | 543 | 647 | 929 | 1030 | 1590 | 2510 | 2590 | 4250 | 6420 |
| 2026-05-05 17:45 | 3.19 | 810 | 13300 (1958) | 391 (1981) | 2180 | 543 | 647 | 929 | 1030 | 1590 | 2510 | 2590 | 4250 | 6420 |
| 2026-05-05 16:45 | 3.19 | 810 | 13300 (1958) | 391 (1981) | 2180 | 543 | 647 | 929 | 1030 | 1590 | 2510 | 2590 | 4250 | 6420 |
| 2026-05-05 15:45 | 3.18 | 803 | 13300 (1958) | 391 (1981) | 2180 | 543 | 647 | 929 | 1030 | 1590 | 2510 | 2590 | 4250 | 6420 |
| 2026-05-05 14:45 | 3.18 | 803 | 13300 (1958) | 391 (1981) | 2180 | 543 | 647 | 929 | 1030 | 1590 | 2510 | 2590 | 4250 | 6420 |
| 2026-05-05 13:45 | 3.17 | 795 | 13300 (1958) | 391 (1981) | 2180 | 543 | 647 | 929 | 1030 | 1590 | 2510 | 2590 | 4250 | 6420 |
| 2026-05-05 12:45 | 3.19 | 810 | 13300 (1958) | 391 (1981) | 2180 | 543 | 647 | 929 | 1030 | 1590 | 2510 | 2590 | 4250 | 6420 |
| 2026-05-05 11:45 | 3.20 | 818 | 13300 (1958) | 391 (1981) | 2180 | 543 | 647 | 929 | 1030 | 1590 | 2510 | 2590 | 4250 | 6420 |
| 2026-05-05 10:45 | 3.20 | 818 | 13300 (1958) | 391 (1981) | 2180 | 543 | 647 | 929 | 1030 | 1590 | 2510 | 2590 | 4250 | 6420 |
| 2026-05-05 09:45 | 3.20 | 818 | 13300 (1958) | 391 (1981) | 2180 | 543 | 647 | 929 | 1030 | 1590 | 2510 | 2590 | 4250 | 6420 |
| 2026-05-05 08:45 | 3.21 | 826 | 13300 (1958) | 391 (1981) | 2180 | 543 | 647 | 929 | 1030 | 1590 | 2510 | 2590 | 4250 | 6420 |
| 2026-05-05 07:45 | 3.19 | 810 | 13300 (1958) | 391 (1981) | 2180 | 543 | 647 | 929 | 1030 | 1590 | 2510 | 2590 | 4250 | 6420 |
| 2026-05-05 06:45 | 3.18 | 803 | 13300 (1958) | 391 (1981) | 2180 | 543 | 647 | 929 | 1030 | 1590 | 2510 | 2590 | 4250 | 6420 |
| 2026-05-05 05:45 | 3.20 | 818 | 13300 (1958) | 391 (1981) | 2180 | 543 | 647 | 929 | 1030 | 1590 | 2510 | 2590 | 4250 | 6420 |
| 2026-05-05 04:45 | 3.20 | 818 | 13300 (1958) | 391 (1981) | 2180 | 543 | 647 | 929 | 1030 | 1590 | 2510 | 2590 | 4250 | 6420 |
| 2026-05-05 03:45 | 3.20 | 818 | 13300 (1958) | 391 (1981) | 2180 | 543 | 647 | 929 | 1030 | 1590 | 2510 | 2590 | 4250 | 6420 |
| 2026-05-05 02:45 | 3.20 | 818 | 13300 (1958) | 391 (1981) | 2180 | 543 | 647 | 929 | 1030 | 1590 | 2510 | 2590 | 4250 | 6420 |
| 2026-05-05 01:45 | 3.20 | 818 | 13300 (1958) | 391 (1981) | 2180 | 543 | 647 | 929 | 1030 | 1590 | 2510 | 2590 | 4250 | 6420 |
| 2026-05-05 00:45 | 3.20 | 818 | 13300 (1958) | 391 (1981) | 2180 | 543 | 647 | 929 | 1030 | 1590 | 2510 | 2590 | 4250 | 6420 |
| 2026-05-04 23:45 | 3.21 | 826 | 13300 (1958) | 391 (1981) | 2180 | 543 | 647 | 929 | 1030 | 1590 | 2510 | 2590 | 4250 | 6420 |
| 2026-05-04 22:45 | 3.21 | 826 | 10800 (2011) | 380 (1981) | 2280 | 543 | 677 | 943 | 1010 | 1660 | 2890 | 3120 | 4490 | 6990 |
| 2026-05-04 21:45 | 3.21 | 826 | 10800 (2011) | 380 (1981) | 2280 | 543 | 677 | 943 | 1010 | 1660 | 2890 | 3120 | 4490 | 6990 |
| 2026-05-04 20:45 | 3.21 | 826 | 10800 (2011) | 380 (1981) | 2280 | 543 | 677 | 943 | 1010 | 1660 | 2890 | 3120 | 4490 | 6990 |
| 2026-05-04 19:45 | 3.22 | 833 | 10800 (2011) | 380 (1981) | 2280 | 543 | 677 | 943 | 1010 | 1660 | 2890 | 3120 | 4490 | 6990 |
| 2026-05-04 18:45 | 3.22 | 833 | 10800 (2011) | 380 (1981) | 2280 | 543 | 677 | 943 | 1010 | 1660 | 2890 | 3120 | 4490 | 6990 |
| 2026-05-04 17:45 | 3.21 | 826 | 10800 (2011) | 380 (1981) | 2280 | 543 | 677 | 943 | 1010 | 1660 | 2890 | 3120 | 4490 | 6990 |
| 2026-05-04 16:45 | 3.24 | 848 | 10800 (2011) | 380 (1981) | 2280 | 543 | 677 | 943 | 1010 | 1660 | 2890 | 3120 | 4490 | 6990 |
| 2026-05-04 15:45 | 3.20 | 818 | 10800 (2011) | 380 (1981) | 2280 | 543 | 677 | 943 | 1010 | 1660 | 2890 | 3120 | 4490 | 6990 |
| 2026-05-04 14:45 | 3.23 | 841 | 10800 (2011) | 380 (1981) | 2280 | 543 | 677 | 943 | 1010 | 1660 | 2890 | 3120 | 4490 | 6990 |
| 2026-05-04 13:45 | 3.20 | 818 | 10800 (2011) | 380 (1981) | 2280 | 543 | 677 | 943 | 1010 | 1660 | 2890 | 3120 | 4490 | 6990 |
| 2026-05-04 12:45 | 3.21 | 826 | 10800 (2011) | 380 (1981) | 2280 | 543 | 677 | 943 | 1010 | 1660 | 2890 | 3120 | 4490 | 6990 |
| 2026-05-04 11:45 | 3.22 | 833 | 10800 (2011) | 380 (1981) | 2280 | 543 | 677 | 943 | 1010 | 1660 | 2890 | 3120 | 4490 | 6990 |
| 2026-05-04 10:45 | 3.22 | 833 | 10800 (2011) | 380 (1981) | 2280 | 543 | 677 | 943 | 1010 | 1660 | 2890 | 3120 | 4490 | 6990 |
| 2026-05-04 09:45 | 3.22 | 833 | 10800 (2011) | 380 (1981) | 2280 | 543 | 677 | 943 | 1010 | 1660 | 2890 | 3120 | 4490 | 6990 |
| 2026-05-04 08:45 | 3.24 | 848 | 10800 (2011) | 380 (1981) | 2280 | 543 | 677 | 943 | 1010 | 1660 | 2890 | 3120 | 4490 | 6990 |
| 2026-05-04 07:45 | 3.25 | 856 | 10800 (2011) | 380 (1981) | 2280 | 543 | 677 | 943 | 1010 | 1660 | 2890 | 3120 | 4490 | 6990 |
| 2026-05-04 06:45 | 3.25 | 856 | 10800 (2011) | 380 (1981) | 2280 | 543 | 677 | 943 | 1010 | 1660 | 2890 | 3120 | 4490 | 6990 |
| 2026-05-04 05:45 | 3.25 | 856 | 10800 (2011) | 380 (1981) | 2280 | 543 | 677 | 943 | 1010 | 1660 | 2890 | 3120 | 4490 | 6990 |
| 2026-05-04 04:45 | 3.25 | 856 | 10800 (2011) | 380 (1981) | 2280 | 543 | 677 | 943 | 1010 | 1660 | 2890 | 3120 | 4490 | 6990 |
| 2026-05-04 03:45 | 3.25 | 856 | 10800 (2011) | 380 (1981) | 2280 | 543 | 677 | 943 | 1010 | 1660 | 2890 | 3120 | 4490 | 6990 |
| 2026-05-04 02:45 | 3.25 | 856 | 10800 (2011) | 380 (1981) | 2280 | 543 | 677 | 943 | 1010 | 1660 | 2890 | 3120 | 4490 | 6990 |
| 2026-05-04 01:45 | 3.25 | 856 | 10800 (2011) | 380 (1981) | 2280 | 543 | 677 | 943 | 1010 | 1660 | 2890 | 3120 | 4490 | 6990 |
| 2026-05-04 00:45 | 3.26 | 863 | 10800 (2011) | 380 (1981) | 2280 | 543 | 677 | 943 | 1010 | 1660 | 2890 | 3120 | 4490 | 6990 |
| 2026-05-03 23:45 | 3.26 | 863 | 10800 (2011) | 380 (1981) | 2280 | 543 | 677 | 943 | 1010 | 1660 | 2890 | 3120 | 4490 | 6990 |
| 2026-05-03 22:45 | 3.26 | 863 | 22100 (2011) | 382 (1981) | 2420 | 543 | 713 | 969 | 1050 | 1690 | 2910 | 3180 | 4110 | 6220 |
| 2026-05-03 21:45 | 3.27 | 871 | 22100 (2011) | 382 (1981) | 2420 | 543 | 713 | 969 | 1050 | 1690 | 2910 | 3180 | 4110 | 6220 |
| 2026-05-03 20:45 | 3.27 | 871 | 22100 (2011) | 382 (1981) | 2420 | 543 | 713 | 969 | 1050 | 1690 | 2910 | 3180 | 4110 | 6220 |
| 2026-05-03 19:45 | 3.27 | 871 | 22100 (2011) | 382 (1981) | 2420 | 543 | 713 | 969 | 1050 | 1690 | 2910 | 3180 | 4110 | 6220 |
| 2026-05-03 18:45 | 3.27 | 871 | 22100 (2011) | 382 (1981) | 2420 | 543 | 713 | 969 | 1050 | 1690 | 2910 | 3180 | 4110 | 6220 |
| 2026-05-03 17:45 | 3.28 | 879 | 22100 (2011) | 382 (1981) | 2420 | 543 | 713 | 969 | 1050 | 1690 | 2910 | 3180 | 4110 | 6220 |
| 2026-05-03 16:45 | 3.29 | 886 | 22100 (2011) | 382 (1981) | 2420 | 543 | 713 | 969 | 1050 | 1690 | 2910 | 3180 | 4110 | 6220 |
| 2026-05-03 15:45 | 3.29 | 886 | 22100 (2011) | 382 (1981) | 2420 | 543 | 713 | 969 | 1050 | 1690 | 2910 | 3180 | 4110 | 6220 |
| 2026-05-03 14:45 | 3.26 | 863 | 22100 (2011) | 382 (1981) | 2420 | 543 | 713 | 969 | 1050 | 1690 | 2910 | 3180 | 4110 | 6220 |
| 2026-05-03 13:45 | 3.29 | 886 | 22100 (2011) | 382 (1981) | 2420 | 543 | 713 | 969 | 1050 | 1690 | 2910 | 3180 | 4110 | 6220 |
| 2026-05-03 12:45 | 3.28 | 879 | 22100 (2011) | 382 (1981) | 2420 | 543 | 713 | 969 | 1050 | 1690 | 2910 | 3180 | 4110 | 6220 |
| 2026-05-03 11:45 | 3.28 | 879 | 22100 (2011) | 382 (1981) | 2420 | 543 | 713 | 969 | 1050 | 1690 | 2910 | 3180 | 4110 | 6220 |
| 2026-05-03 10:45 | 3.28 | 879 | 22100 (2011) | 382 (1981) | 2420 | 543 | 713 | 969 | 1050 | 1690 | 2910 | 3180 | 4110 | 6220 |
| 2026-05-03 09:45 | 3.29 | 886 | 22100 (2011) | 382 (1981) | 2420 | 543 | 713 | 969 | 1050 | 1690 | 2910 | 3180 | 4110 | 6220 |
| 2026-05-03 08:45 | 3.30 | 894 | 22100 (2011) | 382 (1981) | 2420 | 543 | 713 | 969 | 1050 | 1690 | 2910 | 3180 | 4110 | 6220 |
| 2026-05-03 07:45 | 3.30 | 894 | 22100 (2011) | 382 (1981) | 2420 | 543 | 713 | 969 | 1050 | 1690 | 2910 | 3180 | 4110 | 6220 |
| 2026-05-03 06:45 | 3.30 | 894 | 22100 (2011) | 382 (1981) | 2420 | 543 | 713 | 969 | 1050 | 1690 | 2910 | 3180 | 4110 | 6220 |
| 2026-05-03 05:45 | 3.31 | 901 | 22100 (2011) | 382 (1981) | 2420 | 543 | 713 | 969 | 1050 | 1690 | 2910 | 3180 | 4110 | 6220 |
| 2026-05-03 04:45 | 3.31 | 901 | 22100 (2011) | 382 (1981) | 2420 | 543 | 713 | 969 | 1050 | 1690 | 2910 | 3180 | 4110 | 6220 |
| 2026-05-03 03:45 | 3.31 | 901 | 22100 (2011) | 382 (1981) | 2420 | 543 | 713 | 969 | 1050 | 1690 | 2910 | 3180 | 4110 | 6220 |
| 2026-05-03 02:45 | 3.32 | 909 | 22100 (2011) | 382 (1981) | 2420 | 543 | 713 | 969 | 1050 | 1690 | 2910 | 3180 | 4110 | 6220 |
| 2026-05-03 01:45 | 3.32 | 909 | 22100 (2011) | 382 (1981) | 2420 | 543 | 713 | 969 | 1050 | 1690 | 2910 | 3180 | 4110 | 6220 |
| 2026-05-03 00:45 | 3.32 | 909 | 22100 (2011) | 382 (1981) | 2420 | 543 | 713 | 969 | 1050 | 1690 | 2910 | 3180 | 4110 | 6220 |
| 2026-05-02 23:45 | 3.33 | 917 | 22100 (2011) | 382 (1981) | 2420 | 543 | 713 | 969 | 1050 | 1690 | 2910 | 3180 | 4110 | 6220 |
A total of 178 rows are displayed for years 1930 through 2025.